sensor_id;sensor_type;location;lat;lon;timestamp;P1;durP1;ratioP1;P2;durP2;ratioP2
3643;SDS011;1838;50.742;7.158;2022-10-24T00:00:21;17.43;;;5.17;;
3643;SDS011;1838;50.742;7.158;2022-10-24T00:02:47;16.37;;;4.43;;
3643;SDS011;1838;50.742;7.158;2022-10-24T00:05:13;20.10;;;3.90;;
3643;SDS011;1838;50.742;7.158;2022-10-24T00:07:39;11.13;;;4.23;;
3643;SDS011;1838;50.742;7.158;2022-10-24T00:10:05;10.43;;;4.03;;
3643;SDS011;1838;50.742;7.158;2022-10-24T00:12:32;25.13;;;4.60;;
3643;SDS011;1838;50.742;7.158;2022-10-24T00:14:57;27.60;;;5.80;;
3643;SDS011;1838;50.742;7.158;2022-10-24T00:17:23;12.90;;;4.13;;
3643;SDS011;1838;50.742;7.158;2022-10-24T00:19:48;21.53;;;5.03;;
3643;SDS011;1838;50.742;7.158;2022-10-24T00:22:14;20.63;;;5.83;;
3643;SDS011;1838;50.742;7.158;2022-10-24T00:24:40;12.97;;;4.40;;
3643;SDS011;1838;50.742;7.158;2022-10-24T00:27:05;17.47;;;5.10;;
3643;SDS011;1838;50.742;7.158;2022-10-24T00:29:33;14.90;;;5.63;;
3643;SDS011;1838;50.742;7.158;2022-10-24T00:31:59;16.13;;;5.67;;
3643;SDS011;1838;50.742;7.158;2022-10-24T00:34:24;18.23;;;5.37;;
3643;SDS011;1838;50.742;7.158;2022-10-24T00:36:49;15.73;;;5.50;;
3643;SDS011;1838;50.742;7.158;2022-10-24T00:39:15;9.03;;;4.87;;
3643;SDS011;1838;50.742;7.158;2022-10-24T00:41:41;11.17;;;4.27;;
3643;SDS011;1838;50.742;7.158;2022-10-24T00:46:52;8.23;;;4.23;;
3643;SDS011;1838;50.742;7.158;2022-10-24T00:49:26;16.80;;;5.33;;
3643;SDS011;1838;50.742;7.158;2022-10-24T00:51:55;17.63;;;5.53;;
3643;SDS011;1838;50.742;7.158;2022-10-24T00:54:26;14.37;;;5.10;;
3643;SDS011;1838;50.742;7.158;2022-10-24T00:57:00;19.73;;;5.50;;
3643;SDS011;1838;50.742;7.158;2022-10-24T00:59:32;15.40;;;5.07;;
3643;SDS011;1838;50.742;7.158;2022-10-24T01:01:59;10.60;;;4.90;;
3643;SDS011;1838;50.742;7.158;2022-10-24T01:04:25;18.90;;;5.70;;
3643;SDS011;1838;50.742;7.158;2022-10-24T01:12:16;12.97;;;5.33;;
3643;SDS011;1838;50.742;7.158;2022-10-24T01:14:46;9.03;;;4.60;;
3643;SDS011;1838;50.742;7.158;2022-10-24T01:22:54;31.40;;;5.30;;
3643;SDS011;1838;50.742;7.158;2022-10-24T01:28:17;18.80;;;5.27;;
3643;SDS011;1838;50.742;7.158;2022-10-24T01:30:51;16.87;;;5.50;;
3643;SDS011;1838;50.742;7.158;2022-10-24T01:33:28;14.83;;;5.30;;
3643;SDS011;1838;50.742;7.158;2022-10-24T01:36:07;11.57;;;4.80;;
3643;SDS011;1838;50.742;7.158;2022-10-24T01:38:38;8.87;;;4.43;;
3643;SDS011;1838;50.742;7.158;2022-10-24T01:41:10;16.20;;;5.30;;
3643;SDS011;1838;50.742;7.158;2022-10-24T01:43:39;16.73;;;5.97;;
3643;SDS011;1838;50.742;7.158;2022-10-24T01:46:14;17.50;;;5.20;;
3643;SDS011;1838;50.742;7.158;2022-10-24T01:48:46;16.33;;;5.00;;
3643;SDS011;1838;50.742;7.158;2022-10-24T01:51:15;12.30;;;5.43;;
3643;SDS011;1838;50.742;7.158;2022-10-24T01:53:43;10.00;;;4.40;;
3643;SDS011;1838;50.742;7.158;2022-10-24T01:56:10;7.73;;;4.30;;
3643;SDS011;1838;50.742;7.158;2022-10-24T01:58:35;9.13;;;4.60;;
3643;SDS011;1838;50.742;7.158;2022-10-24T02:01:02;22.90;;;5.13;;
3643;SDS011;1838;50.742;7.158;2022-10-24T02:03:41;14.87;;;5.50;;
3643;SDS011;1838;50.742;7.158;2022-10-24T02:06:20;10.07;;;5.27;;
3643;SDS011;1838;50.742;7.158;2022-10-24T02:08:56;11.27;;;5.30;;
3643;SDS011;1838;50.742;7.158;2022-10-24T02:11:29;23.00;;;6.27;;
3643;SDS011;1838;50.742;7.158;2022-10-24T02:13:57;14.17;;;5.40;;
3643;SDS011;1838;50.742;7.158;2022-10-24T02:16:27;29.80;;;5.87;;
3643;SDS011;1838;50.742;7.158;2022-10-24T02:18:54;19.80;;;7.20;;
3643;SDS011;1838;50.742;7.158;2022-10-24T02:21:23;12.57;;;4.87;;
3643;SDS011;1838;50.742;7.158;2022-10-24T02:23:53;13.23;;;5.37;;
3643;SDS011;1838;50.742;7.158;2022-10-24T02:26:26;14.70;;;5.10;;
3643;SDS011;1838;50.742;7.158;2022-10-24T02:29:00;13.93;;;4.60;;
3643;SDS011;1838;50.742;7.158;2022-10-24T02:31:30;8.77;;;4.40;;
3643;SDS011;1838;50.742;7.158;2022-10-24T02:34:00;20.33;;;4.90;;
3643;SDS011;1838;50.742;7.158;2022-10-24T02:36:28;17.30;;;5.23;;
3643;SDS011;1838;50.742;7.158;2022-10-24T02:38:56;21.50;;;5.37;;
3643;SDS011;1838;50.742;7.158;2022-10-24T02:41:24;19.33;;;5.03;;
3643;SDS011;1838;50.742;7.158;2022-10-24T02:43:53;24.43;;;5.20;;
3643;SDS011;1838;50.742;7.158;2022-10-24T02:46:19;12.63;;;3.90;;
3643;SDS011;1838;50.742;7.158;2022-10-24T02:48:46;20.40;;;6.17;;
3643;SDS011;1838;50.742;7.158;2022-10-24T02:51:17;16.77;;;5.20;;
3643;SDS011;1838;50.742;7.158;2022-10-24T02:53:45;18.50;;;4.70;;
3643;SDS011;1838;50.742;7.158;2022-10-24T02:56:11;15.60;;;4.37;;
3643;SDS011;1838;50.742;7.158;2022-10-24T02:58:36;11.23;;;4.80;;
3643;SDS011;1838;50.742;7.158;2022-10-24T03:01:02;9.17;;;5.60;;
3643;SDS011;1838;50.742;7.158;2022-10-24T03:03:28;11.47;;;5.43;;
3643;SDS011;1838;50.742;7.158;2022-10-24T03:05:53;10.73;;;4.17;;
3643;SDS011;1838;50.742;7.158;2022-10-24T03:08:19;9.20;;;4.57;;
3643;SDS011;1838;50.742;7.158;2022-10-24T03:10:44;15.67;;;5.20;;
3643;SDS011;1838;50.742;7.158;2022-10-24T03:13:10;10.87;;;4.97;;
3643;SDS011;1838;50.742;7.158;2022-10-24T03:15:35;18.70;;;5.00;;
3643;SDS011;1838;50.742;7.158;2022-10-24T03:18:01;11.10;;;4.40;;
3643;SDS011;1838;50.742;7.158;2022-10-24T03:20:26;18.43;;;5.47;;
3643;SDS011;1838;50.742;7.158;2022-10-24T03:22:52;9.43;;;5.07;;
3643;SDS011;1838;50.742;7.158;2022-10-24T03:25:17;16.13;;;4.47;;
3643;SDS011;1838;50.742;7.158;2022-10-24T03:27:43;14.20;;;4.00;;
3643;SDS011;1838;50.742;7.158;2022-10-24T03:30:09;15.37;;;5.10;;
3643;SDS011;1838;50.742;7.158;2022-10-24T03:32:35;10.37;;;4.30;;
3643;SDS011;1838;50.742;7.158;2022-10-24T03:35:00;5.77;;;3.77;;
3643;SDS011;1838;50.742;7.158;2022-10-24T03:37:27;15.70;;;5.17;;
3643;SDS011;1838;50.742;7.158;2022-10-24T03:39:53;14.33;;;4.70;;
3643;SDS011;1838;50.742;7.158;2022-10-24T03:42:18;9.70;;;4.83;;
3643;SDS011;1838;50.742;7.158;2022-10-24T03:44:44;13.27;;;4.83;;
3643;SDS011;1838;50.742;7.158;2022-10-24T03:47:10;10.43;;;4.00;;
3643;SDS011;1838;50.742;7.158;2022-10-24T03:49:36;11.87;;;4.70;;
3643;SDS011;1838;50.742;7.158;2022-10-24T03:52:01;14.33;;;4.43;;
3643;SDS011;1838;50.742;7.158;2022-10-24T03:54:27;14.40;;;4.10;;
3643;SDS011;1838;50.742;7.158;2022-10-24T03:56:52;14.63;;;3.80;;
3643;SDS011;1838;50.742;7.158;2022-10-24T03:59:18;13.97;;;4.40;;
3643;SDS011;1838;50.742;7.158;2022-10-24T04:01:43;17.10;;;4.93;;
3643;SDS011;1838;50.742;7.158;2022-10-24T04:04:09;13.57;;;4.50;;
3643;SDS011;1838;50.742;7.158;2022-10-24T04:06:34;14.37;;;4.50;;
3643;SDS011;1838;50.742;7.158;2022-10-24T04:09:00;11.50;;;4.30;;
3643;SDS011;1838;50.742;7.158;2022-10-24T04:11:26;18.50;;;3.87;;
3643;SDS011;1838;50.742;7.158;2022-10-24T04:13:51;12.83;;;4.93;;
3643;SDS011;1838;50.742;7.158;2022-10-24T04:16:18;8.30;;;3.80;;
3643;SDS011;1838;50.742;7.158;2022-10-24T04:18:44;12.80;;;4.27;;
3643;SDS011;1838;50.742;7.158;2022-10-24T04:21:10;10.00;;;3.70;;
3643;SDS011;1838;50.742;7.158;2022-10-24T04:23:35;10.50;;;3.90;;
3643;SDS011;1838;50.742;7.158;2022-10-24T04:26:05;10.57;;;3.50;;
3643;SDS011;1838;50.742;7.158;2022-10-24T04:28:32;9.47;;;3.50;;
3643;SDS011;1838;50.742;7.158;2022-10-24T04:30:57;9.20;;;2.90;;
3643;SDS011;1838;50.742;7.158;2022-10-24T04:33:23;10.87;;;3.30;;
3643;SDS011;1838;50.742;7.158;2022-10-24T04:35:49;13.30;;;3.30;;
3643;SDS011;1838;50.742;7.158;2022-10-24T04:38:16;20.10;;;4.27;;
3643;SDS011;1838;50.742;7.158;2022-10-24T04:40:49;12.70;;;3.37;;
3643;SDS011;1838;50.742;7.158;2022-10-24T04:43:16;14.30;;;3.73;;
3643;SDS011;1838;50.742;7.158;2022-10-24T04:45:41;9.23;;;2.63;;
3643;SDS011;1838;50.742;7.158;2022-10-24T04:48:07;5.73;;;2.77;;
3643;SDS011;1838;50.742;7.158;2022-10-24T04:50:33;11.13;;;3.43;;
3643;SDS011;1838;50.742;7.158;2022-10-24T04:52:58;5.57;;;3.40;;
3643;SDS011;1838;50.742;7.158;2022-10-24T04:55:25;21.23;;;3.60;;
3643;SDS011;1838;50.742;7.158;2022-10-24T04:57:51;9.60;;;2.87;;
3643;SDS011;1838;50.742;7.158;2022-10-24T05:00:16;12.00;;;3.17;;
3643;SDS011;1838;50.742;7.158;2022-10-24T05:02:42;7.53;;;3.07;;
3643;SDS011;1838;50.742;7.158;2022-10-24T05:05:07;23.87;;;3.60;;
3643;SDS011;1838;50.742;7.158;2022-10-24T05:07:33;10.90;;;3.40;;
3643;SDS011;1838;50.742;7.158;2022-10-24T05:09:58;8.03;;;3.27;;
3643;SDS011;1838;50.742;7.158;2022-10-24T05:12:24;5.67;;;2.93;;
3643;SDS011;1838;50.742;7.158;2022-10-24T05:14:49;10.97;;;2.87;;
3643;SDS011;1838;50.742;7.158;2022-10-24T05:17:15;9.73;;;3.33;;
3643;SDS011;1838;50.742;7.158;2022-10-24T05:19:40;14.13;;;3.43;;
3643;SDS011;1838;50.742;7.158;2022-10-24T05:22:06;5.00;;;2.97;;
3643;SDS011;1838;50.742;7.158;2022-10-24T05:24:31;10.80;;;3.00;;
3643;SDS011;1838;50.742;7.158;2022-10-24T05:26:57;6.27;;;2.70;;
3643;SDS011;1838;50.742;7.158;2022-10-24T05:29:22;16.70;;;3.47;;
3643;SDS011;1838;50.742;7.158;2022-10-24T05:31:49;10.37;;;3.13;;
3643;SDS011;1838;50.742;7.158;2022-10-24T05:34:15;7.60;;;2.97;;
3643;SDS011;1838;50.742;7.158;2022-10-24T05:36:40;11.80;;;2.83;;
3643;SDS011;1838;50.742;7.158;2022-10-24T05:39:06;14.00;;;3.80;;
3643;SDS011;1838;50.742;7.158;2022-10-24T05:41:31;11.87;;;3.30;;
3643;SDS011;1838;50.742;7.158;2022-10-24T05:43:57;8.33;;;2.73;;
3643;SDS011;1838;50.742;7.158;2022-10-24T05:46:22;12.13;;;3.93;;
3643;SDS011;1838;50.742;7.158;2022-10-24T05:48:48;8.60;;;2.90;;
3643;SDS011;1838;50.742;7.158;2022-10-24T05:51:13;8.10;;;3.47;;
3643;SDS011;1838;50.742;7.158;2022-10-24T05:53:39;7.10;;;2.63;;
3643;SDS011;1838;50.742;7.158;2022-10-24T05:56:05;8.27;;;3.20;;
3643;SDS011;1838;50.742;7.158;2022-10-24T05:58:30;11.77;;;2.70;;
3643;SDS011;1838;50.742;7.158;2022-10-24T06:00:56;10.60;;;2.83;;
3643;SDS011;1838;50.742;7.158;2022-10-24T06:03:22;16.90;;;2.67;;
3643;SDS011;1838;50.742;7.158;2022-10-24T06:05:48;5.33;;;2.97;;
3643;SDS011;1838;50.742;7.158;2022-10-24T06:08:15;3.50;;;2.47;;
3643;SDS011;1838;50.742;7.158;2022-10-24T06:10:44;7.00;;;2.30;;
3643;SDS011;1838;50.742;7.158;2022-10-24T06:13:10;7.83;;;2.77;;
3643;SDS011;1838;50.742;7.158;2022-10-24T06:15:36;8.20;;;3.00;;
3643;SDS011;1838;50.742;7.158;2022-10-24T06:18:01;3.17;;;2.20;;
3643;SDS011;1838;50.742;7.158;2022-10-24T06:20:27;6.70;;;2.93;;
3643;SDS011;1838;50.742;7.158;2022-10-24T06:22:52;13.00;;;3.10;;
3643;SDS011;1838;50.742;7.158;2022-10-24T06:25:18;11.47;;;3.07;;
3643;SDS011;1838;50.742;7.158;2022-10-24T06:27:43;10.00;;;3.20;;
3643;SDS011;1838;50.742;7.158;2022-10-24T06:30:09;21.77;;;3.10;;
3643;SDS011;1838;50.742;7.158;2022-10-24T06:32:35;13.77;;;3.00;;
3643;SDS011;1838;50.742;7.158;2022-10-24T06:35:01;11.03;;;2.90;;
3643;SDS011;1838;50.742;7.158;2022-10-24T06:37:27;7.93;;;2.70;;
3643;SDS011;1838;50.742;7.158;2022-10-24T06:39:54;7.07;;;2.70;;
3643;SDS011;1838;50.742;7.158;2022-10-24T06:42:19;13.93;;;3.00;;
3643;SDS011;1838;50.742;7.158;2022-10-24T06:44:45;13.20;;;3.20;;
3643;SDS011;1838;50.742;7.158;2022-10-24T06:47:10;4.90;;;2.90;;
3643;SDS011;1838;50.742;7.158;2022-10-24T06:49:36;8.37;;;3.03;;
3643;SDS011;1838;50.742;7.158;2022-10-24T06:52:01;7.57;;;3.17;;
3643;SDS011;1838;50.742;7.158;2022-10-24T06:54:27;11.63;;;2.87;;
3643;SDS011;1838;50.742;7.158;2022-10-24T06:56:54;10.63;;;2.47;;
3643;SDS011;1838;50.742;7.158;2022-10-24T06:59:19;15.90;;;3.07;;
3643;SDS011;1838;50.742;7.158;2022-10-24T07:01:44;5.90;;;2.80;;
3643;SDS011;1838;50.742;7.158;2022-10-24T07:04:10;7.37;;;2.60;;
3643;SDS011;1838;50.742;7.158;2022-10-24T07:06:36;7.50;;;3.23;;
3643;SDS011;1838;50.742;7.158;2022-10-24T07:09:02;15.13;;;2.90;;
3643;SDS011;1838;50.742;7.158;2022-10-24T07:11:28;7.10;;;2.33;;
3643;SDS011;1838;50.742;7.158;2022-10-24T07:13:54;12.20;;;2.93;;
3643;SDS011;1838;50.742;7.158;2022-10-24T07:16:20;9.40;;;2.63;;
3643;SDS011;1838;50.742;7.158;2022-10-24T07:18:46;4.50;;;1.77;;
3643;SDS011;1838;50.742;7.158;2022-10-24T07:21:20;6.53;;;2.50;;
3643;SDS011;1838;50.742;7.158;2022-10-24T07:23:47;13.53;;;2.67;;
3643;SDS011;1838;50.742;7.158;2022-10-24T07:26:15;8.47;;;1.93;;
3643;SDS011;1838;50.742;7.158;2022-10-24T07:28:41;5.63;;;3.10;;
3643;SDS011;1838;50.742;7.158;2022-10-24T07:31:10;13.97;;;2.90;;
3643;SDS011;1838;50.742;7.158;2022-10-24T07:33:38;31.13;;;3.13;;
3643;SDS011;1838;50.742;7.158;2022-10-24T07:36:05;5.60;;;2.77;;
3643;SDS011;1838;50.742;7.158;2022-10-24T07:38:31;8.40;;;3.07;;
3643;SDS011;1838;50.742;7.158;2022-10-24T07:40:56;5.93;;;2.87;;
3643;SDS011;1838;50.742;7.158;2022-10-24T07:43:22;8.17;;;2.90;;
3643;SDS011;1838;50.742;7.158;2022-10-24T07:45:48;3.73;;;2.20;;
3643;SDS011;1838;50.742;7.158;2022-10-24T07:48:14;8.47;;;2.93;;
3643;SDS011;1838;50.742;7.158;2022-10-24T07:50:41;11.37;;;2.90;;
3643;SDS011;1838;50.742;7.158;2022-10-24T07:53:07;8.53;;;2.50;;
3643;SDS011;1838;50.742;7.158;2022-10-24T07:55:36;6.87;;;2.90;;
3643;SDS011;1838;50.742;7.158;2022-10-24T07:58:06;4.83;;;2.40;;
3643;SDS011;1838;50.742;7.158;2022-10-24T08:00:32;7.53;;;2.43;;
3643;SDS011;1838;50.742;7.158;2022-10-24T08:02:58;8.43;;;2.37;;
3643;SDS011;1838;50.742;7.158;2022-10-24T08:05:23;12.67;;;2.87;;
3643;SDS011;1838;50.742;7.158;2022-10-24T08:07:49;10.70;;;2.50;;
3643;SDS011;1838;50.742;7.158;2022-10-24T08:10:15;9.03;;;1.63;;
3643;SDS011;1838;50.742;7.158;2022-10-24T08:12:41;6.70;;;2.20;;
3643;SDS011;1838;50.742;7.158;2022-10-24T08:15:07;9.60;;;2.10;;
3643;SDS011;1838;50.742;7.158;2022-10-24T08:17:33;12.87;;;2.30;;
3643;SDS011;1838;50.742;7.158;2022-10-24T08:20:00;17.27;;;2.70;;
3643;SDS011;1838;50.742;7.158;2022-10-24T08:22:26;3.53;;;1.90;;
3643;SDS011;1838;50.742;7.158;2022-10-24T08:24:51;8.30;;;2.03;;
3643;SDS011;1838;50.742;7.158;2022-10-24T08:27:17;10.13;;;2.27;;
3643;SDS011;1838;50.742;7.158;2022-10-24T08:29:42;4.43;;;1.90;;
3643;SDS011;1838;50.742;7.158;2022-10-24T08:32:08;8.43;;;2.67;;
3643;SDS011;1838;50.742;7.158;2022-10-24T08:34:33;11.10;;;1.83;;
3643;SDS011;1838;50.742;7.158;2022-10-24T08:36:59;7.47;;;1.60;;
3643;SDS011;1838;50.742;7.158;2022-10-24T08:39:24;5.17;;;1.50;;
3643;SDS011;1838;50.742;7.158;2022-10-24T08:41:52;12.63;;;1.63;;
3643;SDS011;1838;50.742;7.158;2022-10-24T08:49:50;2.40;;;1.50;;
3643;SDS011;1838;50.742;7.158;2022-10-24T08:54:54;3.60;;;1.73;;
3643;SDS011;1838;50.742;7.158;2022-10-24T08:57:23;6.23;;;1.70;;
3643;SDS011;1838;50.742;7.158;2022-10-24T08:59:52;2.77;;;1.67;;
3643;SDS011;1838;50.742;7.158;2022-10-24T09:02:26;7.53;;;2.00;;
3643;SDS011;1838;50.742;7.158;2022-10-24T09:04:56;6.17;;;2.13;;
3643;SDS011;1838;50.742;7.158;2022-10-24T09:07:28;8.57;;;1.77;;
3643;SDS011;1838;50.742;7.158;2022-10-24T09:10:00;6.60;;;1.70;;
3643;SDS011;1838;50.742;7.158;2022-10-24T09:12:37;10.80;;;1.50;;
3643;SDS011;1838;50.742;7.158;2022-10-24T09:15:04;4.00;;;1.60;;
3643;SDS011;1838;50.742;7.158;2022-10-24T09:17:38;2.40;;;1.47;;
3643;SDS011;1838;50.742;7.158;2022-10-24T09:20:19;13.20;;;2.60;;
3643;SDS011;1838;50.742;7.158;2022-10-24T09:22:50;10.77;;;1.67;;
3643;SDS011;1838;50.742;7.158;2022-10-24T09:25:24;7.10;;;1.80;;
3643;SDS011;1838;50.742;7.158;2022-10-24T09:27:54;5.30;;;1.77;;
3643;SDS011;1838;50.742;7.158;2022-10-24T09:30:22;11.87;;;1.83;;
3643;SDS011;1838;50.742;7.158;2022-10-24T09:32:54;8.30;;;1.30;;
3643;SDS011;1838;50.742;7.158;2022-10-24T09:35:23;5.93;;;1.33;;
3643;SDS011;1838;50.742;7.158;2022-10-24T09:37:51;5.30;;;1.83;;
3643;SDS011;1838;50.742;7.158;2022-10-24T09:40:25;10.43;;;2.00;;
3643;SDS011;1838;50.742;7.158;2022-10-24T09:42:59;2.37;;;1.67;;
3643;SDS011;1838;50.742;7.158;2022-10-24T09:45:38;5.70;;;1.60;;
3643;SDS011;1838;50.742;7.158;2022-10-24T09:50:40;8.77;;;1.87;;
3643;SDS011;1838;50.742;7.158;2022-10-24T09:53:09;7.50;;;1.57;;
3643;SDS011;1838;50.742;7.158;2022-10-24T09:55:55;7.37;;;1.60;;
3643;SDS011;1838;50.742;7.158;2022-10-24T09:58:27;8.93;;;1.70;;
3643;SDS011;1838;50.742;7.158;2022-10-24T10:03:39;3.50;;;1.50;;
3643;SDS011;1838;50.742;7.158;2022-10-24T10:06:16;8.93;;;1.60;;
3643;SDS011;1838;50.742;7.158;2022-10-24T10:08:50;8.40;;;1.60;;
3643;SDS011;1838;50.742;7.158;2022-10-24T10:11:25;6.13;;;1.70;;
3643;SDS011;1838;50.742;7.158;2022-10-24T10:13:56;5.23;;;1.50;;
3643;SDS011;1838;50.742;7.158;2022-10-24T10:19:00;8.50;;;1.93;;
3643;SDS011;1838;50.742;7.158;2022-10-24T10:21:50;6.90;;;2.07;;
3643;SDS011;1838;50.742;7.158;2022-10-24T10:35:23;6.97;;;1.53;;
3643;SDS011;1838;50.742;7.158;2022-10-24T10:38:28;16.13;;;1.93;;
3643;SDS011;1838;50.742;7.158;2022-10-24T10:46:38;10.03;;;2.03;;
3643;SDS011;1838;50.742;7.158;2022-10-24T10:49:36;8.03;;;2.27;;
3643;SDS011;1838;50.742;7.158;2022-10-24T10:57:18;10.47;;;2.23;;
3643;SDS011;1838;50.742;7.158;2022-10-24T11:02:43;6.27;;;1.80;;
3643;SDS011;1838;50.742;7.158;2022-10-24T11:05:36;5.97;;;1.70;;
3643;SDS011;1838;50.742;7.158;2022-10-24T11:11:05;6.83;;;2.00;;
3643;SDS011;1838;50.742;7.158;2022-10-24T11:13:50;4.90;;;1.87;;
3643;SDS011;1838;50.742;7.158;2022-10-24T11:16:27;5.93;;;1.40;;
3643;SDS011;1838;50.742;7.158;2022-10-24T11:18:56;4.00;;;1.50;;
3643;SDS011;1838;50.742;7.158;2022-10-24T11:21:26;5.80;;;2.00;;
3643;SDS011;1838;50.742;7.158;2022-10-24T11:24:04;4.43;;;1.60;;
3643;SDS011;1838;50.742;7.158;2022-10-24T11:26:38;7.90;;;1.70;;
3643;SDS011;1838;50.742;7.158;2022-10-24T11:29:26;5.30;;;2.47;;
3643;SDS011;1838;50.742;7.158;2022-10-24T11:32:02;10.03;;;1.50;;
3643;SDS011;1838;50.742;7.158;2022-10-24T11:34:32;5.73;;;1.73;;
3643;SDS011;1838;50.742;7.158;2022-10-24T11:37:05;4.20;;;1.73;;
3643;SDS011;1838;50.742;7.158;2022-10-24T11:39:56;9.03;;;1.97;;
3643;SDS011;1838;50.742;7.158;2022-10-24T11:42:41;4.20;;;1.83;;
3643;SDS011;1838;50.742;7.158;2022-10-24T11:45:28;6.73;;;1.30;;
3643;SDS011;1838;50.742;7.158;2022-10-24T11:51:12;4.37;;;1.47;;
3643;SDS011;1838;50.742;7.158;2022-10-24T11:53:54;4.90;;;1.50;;
3643;SDS011;1838;50.742;7.158;2022-10-24T11:56:30;6.80;;;1.40;;
3643;SDS011;1838;50.742;7.158;2022-10-24T11:59:06;2.93;;;1.23;;
3643;SDS011;1838;50.742;7.158;2022-10-24T12:18:58;3.40;;;1.17;;
3643;SDS011;1838;50.742;7.158;2022-10-24T12:21:27;8.97;;;2.10;;
3643;SDS011;1838;50.742;7.158;2022-10-24T12:24:01;13.63;;;1.40;;
3643;SDS011;1838;50.742;7.158;2022-10-24T12:26:28;6.17;;;1.60;;
3643;SDS011;1838;50.742;7.158;2022-10-24T12:28:59;5.00;;;1.63;;
3643;SDS011;1838;50.742;7.158;2022-10-24T12:31:28;3.90;;;1.40;;
3643;SDS011;1838;50.742;7.158;2022-10-24T12:39:49;5.60;;;1.53;;
3643;SDS011;1838;50.742;7.158;2022-10-24T12:58:00;4.87;;;1.73;;
3643;SDS011;1838;50.742;7.158;2022-10-24T13:00:27;9.73;;;2.20;;
3643;SDS011;1838;50.742;7.158;2022-10-24T13:03:04;4.00;;;1.37;;
3643;SDS011;1838;50.742;7.158;2022-10-24T13:05:56;5.53;;;1.50;;
3643;SDS011;1838;50.742;7.158;2022-10-24T13:08:40;4.70;;;1.47;;
3643;SDS011;1838;50.742;7.158;2022-10-24T13:11:18;10.30;;;1.83;;
3643;SDS011;1838;50.742;7.158;2022-10-24T13:14:14;5.97;;;1.50;;
3643;SDS011;1838;50.742;7.158;2022-10-24T13:20:02;4.23;;;1.50;;
3643;SDS011;1838;50.742;7.158;2022-10-24T13:22:44;11.50;;;1.70;;
3643;SDS011;1838;50.742;7.158;2022-10-24T13:25:17;4.33;;;1.70;;
3643;SDS011;1838;50.742;7.158;2022-10-24T13:38:39;5.10;;;2.20;;
3643;SDS011;1838;50.742;7.158;2022-10-24T13:41:11;7.77;;;1.80;;
3643;SDS011;1838;50.742;7.158;2022-10-24T13:43:44;6.63;;;1.40;;
3643;SDS011;1838;50.742;7.158;2022-10-24T13:46:18;8.03;;;1.93;;
3643;SDS011;1838;50.742;7.158;2022-10-24T13:48:52;7.23;;;1.47;;
3643;SDS011;1838;50.742;7.158;2022-10-24T13:51:23;8.00;;;1.50;;
3643;SDS011;1838;50.742;7.158;2022-10-24T13:54:05;17.10;;;2.13;;
3643;SDS011;1838;50.742;7.158;2022-10-24T13:56:36;10.23;;;1.87;;
3643;SDS011;1838;50.742;7.158;2022-10-24T13:59:03;3.97;;;1.30;;
3643;SDS011;1838;50.742;7.158;2022-10-24T14:01:31;5.37;;;1.93;;
3643;SDS011;1838;50.742;7.158;2022-10-24T14:04:00;5.27;;;1.80;;
3643;SDS011;1838;50.742;7.158;2022-10-24T14:06:27;6.90;;;1.53;;
3643;SDS011;1838;50.742;7.158;2022-10-24T14:08:57;5.90;;;1.57;;
3643;SDS011;1838;50.742;7.158;2022-10-24T14:11:26;7.70;;;1.40;;
3643;SDS011;1838;50.742;7.158;2022-10-24T14:13:54;6.87;;;1.70;;
3643;SDS011;1838;50.742;7.158;2022-10-24T14:16:23;5.57;;;1.30;;
3643;SDS011;1838;50.742;7.158;2022-10-24T14:18:50;3.90;;;1.63;;
3643;SDS011;1838;50.742;7.158;2022-10-24T14:21:19;5.87;;;1.97;;
3643;SDS011;1838;50.742;7.158;2022-10-24T14:23:55;6.40;;;2.27;;
3643;SDS011;1838;50.742;7.158;2022-10-24T14:26:25;17.43;;;2.13;;
3643;SDS011;1838;50.742;7.158;2022-10-24T14:28:53;16.03;;;2.30;;
3643;SDS011;1838;50.742;7.158;2022-10-24T14:34:18;5.10;;;1.57;;
3643;SDS011;1838;50.742;7.158;2022-10-24T14:36:46;7.43;;;1.90;;
3643;SDS011;1838;50.742;7.158;2022-10-24T14:39:15;8.53;;;1.60;;
3643;SDS011;1838;50.742;7.158;2022-10-24T14:41:47;6.00;;;1.50;;
3643;SDS011;1838;50.742;7.158;2022-10-24T14:44:17;11.23;;;2.03;;
3643;SDS011;1838;50.742;7.158;2022-10-24T14:46:46;4.30;;;1.40;;
3643;SDS011;1838;50.742;7.158;2022-10-24T14:51:57;11.30;;;2.00;;
3643;SDS011;1838;50.742;7.158;2022-10-24T14:54:28;8.00;;;2.10;;
3643;SDS011;1838;50.742;7.158;2022-10-24T14:56:56;10.80;;;2.07;;
3643;SDS011;1838;50.742;7.158;2022-10-24T14:59:28;5.77;;;1.73;;
3643;SDS011;1838;50.742;7.158;2022-10-24T15:02:04;23.67;;;2.93;;
3643;SDS011;1838;50.742;7.158;2022-10-24T15:04:42;8.97;;;1.80;;
3643;SDS011;1838;50.742;7.158;2022-10-24T15:09:57;5.17;;;1.20;;
3643;SDS011;1838;50.742;7.158;2022-10-24T15:12:31;8.13;;;1.97;;
3643;SDS011;1838;50.742;7.158;2022-10-24T15:17:43;16.10;;;1.70;;
3643;SDS011;1838;50.742;7.158;2022-10-24T15:20:11;4.23;;;1.50;;
3643;SDS011;1838;50.742;7.158;2022-10-24T15:22:39;5.13;;;1.70;;
3643;SDS011;1838;50.742;7.158;2022-10-24T15:25:18;6.73;;;1.87;;
3643;SDS011;1838;50.742;7.158;2022-10-24T15:27:47;7.40;;;1.63;;
3643;SDS011;1838;50.742;7.158;2022-10-24T15:30:14;6.03;;;1.73;;
3643;SDS011;1838;50.742;7.158;2022-10-24T15:32:41;13.20;;;1.93;;
3643;SDS011;1838;50.742;7.158;2022-10-24T15:35:07;5.57;;;1.90;;
3643;SDS011;1838;50.742;7.158;2022-10-24T15:37:33;5.43;;;2.40;;
3643;SDS011;1838;50.742;7.158;2022-10-24T15:40:00;4.70;;;1.43;;
3643;SDS011;1838;50.742;7.158;2022-10-24T15:42:28;5.60;;;1.73;;
3643;SDS011;1838;50.742;7.158;2022-10-24T15:44:53;4.33;;;1.77;;
3643;SDS011;1838;50.742;7.158;2022-10-24T15:47:19;6.47;;;1.83;;
3643;SDS011;1838;50.742;7.158;2022-10-24T15:49:48;5.33;;;2.50;;
3643;SDS011;1838;50.742;7.158;2022-10-24T15:52:16;4.80;;;1.57;;
3643;SDS011;1838;50.742;7.158;2022-10-24T15:54:42;15.53;;;3.03;;
3643;SDS011;1838;50.742;7.158;2022-10-24T15:57:11;3.93;;;1.80;;
3643;SDS011;1838;50.742;7.158;2022-10-24T15:59:37;7.77;;;1.70;;
3643;SDS011;1838;50.742;7.158;2022-10-24T16:02:03;3.80;;;2.03;;
3643;SDS011;1838;50.742;7.158;2022-10-24T16:04:35;6.23;;;1.57;;
3643;SDS011;1838;50.742;7.158;2022-10-24T16:07:04;13.43;;;1.83;;
3643;SDS011;1838;50.742;7.158;2022-10-24T16:09:29;4.03;;;2.00;;
3643;SDS011;1838;50.742;7.158;2022-10-24T16:11:55;15.17;;;2.27;;
3643;SDS011;1838;50.742;7.158;2022-10-24T16:14:21;7.53;;;1.70;;
3643;SDS011;1838;50.742;7.158;2022-10-24T16:16:49;6.93;;;1.83;;
3643;SDS011;1838;50.742;7.158;2022-10-24T16:19:15;13.20;;;2.03;;
3643;SDS011;1838;50.742;7.158;2022-10-24T16:21:41;8.23;;;2.53;;
3643;SDS011;1838;50.742;7.158;2022-10-24T16:24:07;9.27;;;2.10;;
3643;SDS011;1838;50.742;7.158;2022-10-24T16:26:33;6.37;;;2.07;;
3643;SDS011;1838;50.742;7.158;2022-10-24T16:28:59;13.13;;;2.20;;
3643;SDS011;1838;50.742;7.158;2022-10-24T16:31:25;8.90;;;2.27;;
3643;SDS011;1838;50.742;7.158;2022-10-24T16:33:50;11.43;;;2.00;;
3643;SDS011;1838;50.742;7.158;2022-10-24T16:36:16;7.10;;;1.53;;
3643;SDS011;1838;50.742;7.158;2022-10-24T16:38:42;10.23;;;2.50;;
3643;SDS011;1838;50.742;7.158;2022-10-24T16:41:15;7.13;;;2.10;;
3643;SDS011;1838;50.742;7.158;2022-10-24T16:43:43;13.83;;;2.43;;
3643;SDS011;1838;50.742;7.158;2022-10-24T16:46:12;4.03;;;1.77;;
3643;SDS011;1838;50.742;7.158;2022-10-24T16:48:39;10.07;;;2.03;;
3643;SDS011;1838;50.742;7.158;2022-10-24T16:51:09;14.30;;;2.80;;
3643;SDS011;1838;50.742;7.158;2022-10-24T16:53:35;8.30;;;2.90;;
3643;SDS011;1838;50.742;7.158;2022-10-24T16:56:01;4.77;;;2.20;;
3643;SDS011;1838;50.742;7.158;2022-10-24T16:58:26;7.83;;;2.53;;
3643;SDS011;1838;50.742;7.158;2022-10-24T17:00:59;8.67;;;3.10;;
3643;SDS011;1838;50.742;7.158;2022-10-24T17:03:26;5.90;;;2.47;;
3643;SDS011;1838;50.742;7.158;2022-10-24T17:05:52;15.13;;;2.47;;
3643;SDS011;1838;50.742;7.158;2022-10-24T17:08:18;6.77;;;2.40;;
3643;SDS011;1838;50.742;7.158;2022-10-24T17:10:43;11.50;;;2.10;;
3643;SDS011;1838;50.742;7.158;2022-10-24T17:13:09;9.10;;;2.60;;
3643;SDS011;1838;50.742;7.158;2022-10-24T17:15:34;8.10;;;2.53;;
3643;SDS011;1838;50.742;7.158;2022-10-24T17:18:00;8.90;;;2.00;;
3643;SDS011;1838;50.742;7.158;2022-10-24T17:20:25;10.57;;;2.20;;
3643;SDS011;1838;50.742;7.158;2022-10-24T17:22:51;10.07;;;2.23;;
3643;SDS011;1838;50.742;7.158;2022-10-24T17:25:24;11.00;;;2.63;;
3643;SDS011;1838;50.742;7.158;2022-10-24T17:27:51;13.00;;;3.20;;